Portada
METAR-TAF:

METAR-TAF

Aeropuertos :

Istres, Francia

latitud: 43-31N, longitud: 004-56E, altitud: 23 m

Observación

El informe se hizo hace 26 minutos, a las 08:00 UTC
Viento 20 kt del norte-noroeste
Temperatura 22°C
Humedad 50%
Presión 1008 hPa
Visibilidad 10 km o más
sin nubes por debajo de 1500 m y sin presencia de cumulonimbus.

METAR: LFMI 270800Z AUTO 33020KT CAVOK 22/11 Q1008 TEMPO 34020G30KT

Hora: 10:26 (08:26 UTC)

Pronóstico

El informe se hizo hace 6 horas y 26 minutos, a las 02:00 UTC
Pronóstico válido del 27 a las 03 UTC al 28 a las 03 UTC
Viento 12 kt del norte-noroeste
Visibilidad 10 km o más
sin nubes por debajo de 1500 m y sin presencia de cumulonimbus.
Temporalmente
del 27 a las 07 UTC al 27 a las 21 UTC
Viento 20 kt del norte-noroeste con ráfagas de 30 kt

TAF: LFMI 270200Z 2703/2803 33012KT CAVOK TEMPO 2707/2721 34020G30KT

Observaciones y pronósticos meteorológicos de más de 4000 aeropuertos (mensajes METAR y TAF).

Los puntos amarillos y rojos representan las estaciones disponibles.

Ponga el ratón en el punto deseado para ver el nombre de la estación.

Haga clic para ver las observaciones y los pronósticos meteorológicos.

Para cambiar el mapa : haga clic en los botones verdes con una cruz de color negro para hacer un zoom, en el botón verde con un guión para alejar o en las flechas verdes para mapas adyacentes.


METAR-TAF: